Cubic Corp (CUB) Latest Bloomsberg Price


Mffais Ranking #397 Overall / #9 Industry
Industry: It Services

Number of Companies: 106 (Ranking #1575 Overall/#22 Industry)
Inflow: $ 32,085 (K) (Ranking #1528 Overall/#21 Industry)
Outflow: $ -15,344 (K)
Mffais Flow: $ 16,741 (K) (Ranking #397 Overall/#9 Industry)


Receive a FREE weekly executive review of stocks moving into the top 10, taking the top industy spot or moving up within their industry. Sent directly to your Inbox every Saturday. Sign up today and get last week's review immediately sent to you.

We value and respect your privacy. Please read our Terms and Conditions which states our firm commitment to your privacy. Your email address will not be shared with a third party, nor will it be sold or used for purposes other than subscription for the weekly review.

Owner CPOR Shares Action Qty Chg Invested (K) Total Current Value (K)
Kennedy Capital Management Inc 2016-09-30 152,252 New Holding 152,252 $ 6,134 $ 6,134
Dimensional Fund Advisors Lp 2016-09-30 1,500,666 Added More 114,553 $ 4,615 $ 60,461
Sg Capital Management Llc 2016-09-30 188,857 Added More 88,086 $ 3,548 $ 7,609
Cortina Asset Management Llc 2016-09-30 78,708 New Holding 78,708 $ 3,171 $ 3,171
1492 Capital Management Llc 2016-09-30 56,851 New Holding 56,851 $ 2,290 $ 2,290
Cooper Creek Partners Management Llc 2016-09-30 149,114 Added More 54,676 $ 2,202 $ 6,007
Suffolk Capital Management Llc 2016-09-30 28,869 New Holding 28,869 $ 1,163 $ 1,163
River Road Asset Management Llc 2016-09-30 695,357 Added More 20,578 $ 829 $ 28,015
Pzena Investment Management Llc 2016-09-30 869,384 Added More 18,710 $ 753 $ 35,027
Legal General Group Plc 2016-09-30 23,567 Added More 18,553 $ 747 $ 949
Spark Investment Management Llc 2016-09-30 17,100 New Holding 17,100 $ 688 $ 688
Coe Capital Management Llc 2016-09-30 16,900 New Holding 16,900 $ 680 $ 680
Northern Trust Corp 2016-09-30 734,412 Added More 15,174 $ 611 $ 29,589
Gotham Asset Management Llc 2016-09-30 13,012 New Holding 13,012 $ 524 $ 524
Dynamic Technology Lab Private Ltd 2016-09-30 10,598 New Holding 10,598 $ 426 $ 426
Gamco Investors Inc Et Al 2016-09-30 7,650 New Holding 7,650 $ 308 $ 308
Nisa Investment Advisors Llc 2016-09-30 15,000 Added More 6,600 $ 265 $ 604
Teachers Advisors Inc 2016-09-30 253,161 Added More 6,418 $ 258 $ 10,199
Two Sigma Securities Llc 2016-09-30 5,155 New Holding 5,155 $ 207 $ 207
Sg Americas Securities Llc 2016-09-30 5,015 New Holding 5,015 $ 202 $ 202
1st Global Advisors Inc 2016-09-30 4,546 New Holding 4,546 $ 183 $ 183
Ellington Management Group Llc 2016-09-30 4,500 New Holding 4,500 $ 181 $ 181
Hsbc Holdings Plc 2016-09-30 4,444 New Holding 4,444 $ 179 $ 179
Chesley Taft Associates Llc 2016-09-30 4,330 New Holding 4,330 $ 174 $ 174
Rhumbline Advisers 2016-09-30 43,480 Added More 3,930 $ 158 $ 1,751
Kcg Holdings Inc 2016-09-30 9,035 Added More 3,819 $ 153 $ 364
Raymond James Associates 2016-09-30 21,013 Added More 3,577 $ 144 $ 846
Value Holdings Lp 2016-09-30 103,051 Added More 3,000 $ 120 $ 4,151
Comerica Bank 2016-09-30 25,191 Added More 2,861 $ 115 $ 1,014
Advisors Asset Management Inc 2016-09-30 21,122 Added More 2,637 $ 106 $ 851
State Of Tennessee Treasury Department 2016-09-30 19,893 Added More 2,585 $ 104 $ 801
Public Sector Pension Investment Board 2016-09-30 17,577 Added More 2,500 $ 100 $ 708
Blackrock Investment Management Llc 2016-09-30 115,873 Added More 2,299 $ 92 $ 4,668
Texas Permanent School Fund 2016-09-30 18,917 Added More 2,209 $ 89 $ 762
Thrivent Financial For Lutherans 2016-09-30 12,630 Added More 2,050 $ 82 $ 508
Arizona State Retirement System 2016-09-30 12,888 Added More 1,500 $ 60 $ 519
Bryn Mawr Trust Co 2016-09-30 61,662 Added More 1,368 $ 55 $ 2,484
Peak6 Investments L P 2016-09-30 8,886 Added More 1,339 $ 53 $ 358
Springbank Value Partners Lp 2016-09-30 42,197 Added More 1,000 $ 40 $ 1,700
Formidable Asset Management Llc 2016-09-30 16,324 Added More 963 $ 38 $ 657
Parametric Portfolio Associates Llc 2016-09-30 44,426 Added More 893 $ 35 $ 1,789
Mason Street Advisors Llc 2016-09-30 5,112 Added More 840 $ 33 $ 205
Capstone Asset Management Co 2016-09-30 7,976 Added More 630 $ 25 $ 321
California State Teachers Retirement System 2016-09-30 53,353 Added More 500 $ 20 $ 2,149
American International Group Inc 2016-09-30 18,680 Added More 490 $ 19 $ 752
Pinebridge Investments L P 2016-09-30 3,157 Added More 386 $ 15 $ 127
Tower Research Capital Llc Trc 2016-09-30 375 New Holding 375 $ 15 $ 15
Blackrock Inc 2016-09-30 10,815 Added More 288 $ 11 $ 435
New York State Teachers Retirement System 2016-09-30 52,541 Added More 200 $ 8 $ 2,116
Cutler Group Lp 2016-09-30 2,524 Added More 187 $ 7 $ 101
Emerald Mutual Fund Advisers Trust 2016-09-30 7,692 Added More 151 $ 6 $ 309
Zurcher Kantonalbank Zurich Cantonalbank 2016-09-30 653 Added More 135 $ 5 $ 26
Ls Investment Advisors Llc 2016-09-30 937 Added More 115 $ 4 $ 37
Swiss National Bank 2016-09-30 37,200 Added More 100 $ 4 $ 1,498
Simplex Trading Llc 2016-09-30 80 New Holding 80 $ 3 $ 3
Tygh Capital Management Inc 2016-09-30 42,799 Added More 56 $ 2 $ 1,724
Ifp Advisors Inc 2016-09-30 1,011 Added More 32 $ 1 $ 40
Bragg Financial Advisors Inc 2016-09-30 50,390 No Change 0 $ 0 $ 2,030
Nj State Employees Deferred Compensation Plan 2016-09-30 15,000 No Change 0 $ 0 $ 604
Counsel Portfolio Services Inc 2016-06-30 52,644 No Change 0 $ 0 $ 2,114
Horizon Kinetics Llc 2016-09-30 15,419 No Change 0 $ 0 $ 621
Creative Planning 2016-09-30 495 No Change 0 $ 0 $ 19
Third Avenue Management Llc 2016-09-30 172,224 No Change 0 $ 0 $ 6,938
Advisory Services Network Llc 2016-09-30 91 No Change 0 $ 0 $ 3
Nationwide Fund Advisors 2016-09-30 19,637 No Change 0 $ 0 $ 791
Quadrant Capital Group Llc 2016-09-30 33 No Change 0 $ 0 $ 1
Cable Hill Partners Llc 2016-09-30 107 No Change 0 $ 0 $ 4
Advisor Group Inc 2016-09-30 279 No Change 0 $ 0 $ 11
American Financial Group Inc 2016-09-30 5,226 No Change 0 $ 0 $ 210
Ladenburg Thalmann Financial Services Inc 2016-09-30 33 No Change 0 $ 0 $ 1
Smithfield Trust Co 2016-09-30 500 No Change 0 $ 0 $ 20
Johnson Investment Counsel Inc 2016-09-30 7,000 No Change 0 $ 0 $ 282
Teachers Retirement System Of The State Of Kentucky 2016-09-30 6,200 No Change 0 $ 0 $ 249
Old National Bancorp In 2016-09-30 5,847 No Change 0 $ 0 $ 235
Cna Financial Corp 2016-09-30 31,350 No Change 0 $ 0 $ 1,263
Msi Financial Services Inc 2016-09-30 10 Sold Some -35 $ -1 $ 0
Envestnet Asset Management Inc 2016-09-30 1,493 Sold Some -81 $ -3 $ 60
Moors Cabot Inc 2016-09-30 10,000 Sold Some -100 $ -4 $ 402
Pnc Financial Services Group Inc 2016-09-30 720 Sold Some -127 $ -5 $ 29
Bessemer Group Inc 2016-09-30 0 Sold All -150 $ -6 $ 0
Emerald Acquisition Ltd 2016-09-30 329 Sold Some -329 $ -13 $ 13
Us Bancorp De 2016-09-30 9,614 Sold Some -346 $ -13 $ 387
Parkside Financial Bank Trust 2016-09-30 373 Sold Some -385 $ -15 $ 15
Fdx Advisors Inc 2016-09-30 5,847 Sold Some -489 $ -19 $ 235
Pioneer Investment Management Inc 2016-09-30 116,245 Sold Some -619 $ -24 $ 4,683
Qs Investors Llc 2016-09-30 0 Sold All -1,541 $ -62 $ 0
Profund Advisors Llc 2016-09-30 5,140 Sold Some -1,770 $ -71 $ 207
Rodgers Brothers Inc 2016-09-30 27,950 Sold Some -2,000 $ -80 $ 1,126
Guggenheim Capital Llc 2016-09-30 5,833 Sold Some -2,366 $ -95 $ 235
Dekabank Deutsche Girozentrale 2016-09-30 0 Sold All -2,750 $ -110 $ 0
Teacher Retirement System Of Texas 2016-09-30 0 Sold All -3,206 $ -129 $ 0
New Jersey Better Educational Savings Trust 2016-09-30 5,000 Sold Some -4,000 $ -161 $ 201
United Services Automobile Association 2016-09-30 262,948 Sold Some -4,750 $ -191 $ 10,594
Gsa Capital Partners Llp 2016-09-30 4,995 Sold Some -5,000 $ -201 $ 201
Schwartz Investment Counsel Inc 2016-09-30 0 Sold All -5,000 $ -201 $ 0
Morgan Dempsey Capital Management Llc 2016-09-30 43,151 Sold Some -5,465 $ -220 $ 1,738
Emerald Advisers Inc Pa 2016-09-30 11,075 Sold Some -5,512 $ -222 $ 446
Tudor Investment Corp Et Al 2016-09-30 0 Sold All -5,800 $ -233 $ 0
Denver Investment Advisors Llc 2016-09-30 513,862 Sold Some -12,022 $ -484 $ 20,703
Ridgeworth Capital Management Llc 2016-09-30 787,494 Sold Some -19,300 $ -777 $ 31,728
First Pacific Advisors Llc 2016-09-30 525,647 Sold Some -30,600 $ -1,232 $ 21,178
State Of New Jersey Common Pension Fund D 2016-09-30 780,000 Sold Some -40,000 $ -1,611 $ 31,426
Putnam Investments Llc 2016-09-30 0 Sold All -43,212 $ -1,741 $ 0
Intrepid Capital Management Inc 2016-09-30 242,518 Sold Some -52,664 $ -2,121 $ 9,771
Bridgeway Capital Management Inc 2016-09-30 54,500 Sold Some -60,400 $ -2,433 $ 2,195
New York State Common Retirement Fund 2016-09-30 146,241 Sold Some -70,827 $ -2,853 $ 5,892